Time;durP1;ratioP1;P1;durP2;ratioP2;P2;SDS_P1;SDS_P2;PMS_P1;PMS_P2;Temp;Humidity;BMP_temperature;BMP_pressure;BME280_temperature;BME280_humidity;BME280_pressure;Samples;Min_cycle;Max_cycle;Signal;HPM_P1;HPM_P2
2021/07/01 00:00:20;;;;;;;0.55;0.28;;;;;;;;;;4921095;29;20032;-89
2021/07/01 00:02:46;;;;;;;0.45;0.20;;;;;;;;;;4919578;29;20067;-88
2021/07/01 00:05:14;;;;;;;1.67;0.20;;;;;;;;;;4919654;29;20088;-89
2021/07/01 00:07:40;;;;;;;1.70;0.32;;;;;;;;;;4919461;29;20389;-90
2021/07/01 00:10:27;;;;;;;0.55;0.20;;;;;;;;;;4919506;29;20060;-87
2021/07/01 00:12:57;;;;;;;0.55;0.20;;;;;;;;;;4919680;29;20029;-83
2021/07/01 00:15:24;;;;;;;0.77;0.20;;;;;;;;;;4920362;29;20473;-82
2021/07/01 00:17:51;;;;;;;0.70;0.30;;;;;;;;;;4918997;29;20481;-91
2021/07/01 00:20:17;;;;;;;0.30;0.20;;;;;;;;;;4919216;29;20039;-84
2021/07/01 00:22:44;;;;;;;0.75;0.10;;;;;;;;;;4920564;29;20039;-83
2021/07/01 00:25:11;;;;;;;2.38;0.20;;;;;;;;;;4920059;29;20521;-83
2021/07/01 00:27:37;;;;;;;0.65;0.17;;;;;;;;;;4919939;29;20481;-89
2021/07/01 00:30:08;;;;;;;0.28;0.10;;;;;;;;;;4918777;29;20545;-90
2021/07/01 00:32:35;;;;;;;0.30;0.10;;;;;;;;;;4918743;29;20024;-90
2021/07/01 00:35:01;;;;;;;0.35;0.20;;;;;;;;;;4919195;29;20055;-91
2021/07/01 00:37:32;;;;;;;0.28;0.10;;;;;;;;;;4918686;29;20123;-88
2021/07/01 00:40:02;;;;;;;2.53;0.20;;;;;;;;;;4920876;29;20036;-88
2021/07/01 00:42:29;;;;;;;0.50;0.20;;;;;;;;;;4922080;29;20477;-89
2021/07/01 00:44:55;;;;;;;2.22;0.32;;;;;;;;;;4938786;29;20532;-90
2021/07/01 00:47:21;;;;;;;0.22;0.20;;;;;;;;;;4922268;29;20536;-90
2021/07/01 00:49:48;;;;;;;0.32;0.20;;;;;;;;;;4921787;29;20059;-89
2021/07/01 00:52:14;;;;;;;0.43;0.20;;;;;;;;;;4939497;29;20035;-88
2021/07/01 00:54:42;;;;;;;0.63;0.20;;;;;;;;;;4938754;29;20445;-89
2021/07/01 00:57:09;;;;;;;0.38;0.17;;;;;;;;;;4922273;29;20478;-90
2021/07/01 00:59:36;;;;;;;0.32;0.10;;;;;;;;;;4923287;29;20437;-90
2021/07/01 01:02:02;;;;;;;0.63;0.20;;;;;;;;;;4923786;29;20032;-91
2021/07/01 01:04:28;;;;;;;1.10;0.25;;;;;;;;;;4923890;29;20089;-86
2021/07/01 01:06:54;;;;;;;0.40;0.20;;;;;;;;;;4939983;29;20521;-91
2021/07/01 01:09:21;;;;;;;0.43;0.20;;;;;;;;;;4922475;29;20031;-92
2021/07/01 01:11:47;;;;;;;0.43;0.30;;;;;;;;;;4922921;29;20055;-89
2021/07/01 01:14:13;;;;;;;0.43;0.30;;;;;;;;;;4924583;29;20031;-90
2021/07/01 01:16:40;;;;;;;1.08;0.40;;;;;;;;;;4921013;29;20023;-90
2021/07/01 01:19:06;;;;;;;0.50;0.25;;;;;;;;;;4937880;29;20036;-90
2021/07/01 01:21:32;;;;;;;0.90;0.30;;;;;;;;;;4921923;29;20044;-91
2021/07/01 01:24:00;;;;;;;1.05;0.20;;;;;;;;;;4921175;29;20031;-90
2021/07/01 01:26:27;;;;;;;0.50;0.20;;;;;;;;;;4921314;29;20032;-89
2021/07/01 01:28:54;;;;;;;1.05;0.30;;;;;;;;;;4920876;29;20470;-89
2021/07/01 01:31:21;;;;;;;3.38;0.40;;;;;;;;;;4921660;29;20043;-89
2021/07/01 01:33:47;;;;;;;2.20;0.40;;;;;;;;;;4937644;29;20070;-89
2021/07/01 01:36:13;;;;;;;2.78;0.22;;;;;;;;;;4920758;29;20390;-88
2021/07/01 01:38:39;;;;;;;0.75;0.30;;;;;;;;;;4920770;29;20087;-90
2021/07/01 01:41:06;;;;;;;0.90;0.30;;;;;;;;;;4937478;29;20074;-89
2021/07/01 01:43:32;;;;;;;3.22;0.65;;;;;;;;;;4920664;29;20032;-88
2021/07/01 01:45:58;;;;;;;0.77;0.32;;;;;;;;;;4920837;29;20489;-90
2021/07/01 01:48:24;;;;;;;0.30;0.10;;;;;;;;;;4920701;29;20039;-89
2021/07/01 01:50:51;;;;;;;0.88;0.38;;;;;;;;;;4937394;29;20083;-89
2021/07/01 01:53:17;;;;;;;1.75;0.20;;;;;;;;;;4937252;29;20505;-90
2021/07/01 01:55:44;;;;;;;0.50;0.20;;;;;;;;;;4920689;29;20051;-90
2021/07/01 01:58:10;;;;;;;0.52;0.20;;;;;;;;;;4937241;29;20495;-90
2021/07/01 02:00:37;;;;;;;1.90;0.30;;;;;;;;;;4936790;29;20028;-90
2021/07/01 02:03:04;;;;;;;1.92;0.20;;;;;;;;;;4936748;29;20095;-90
2021/07/01 02:05:30;;;;;;;0.88;0.20;;;;;;;;;;4937889;29;20024;-91
2021/07/01 02:07:56;;;;;;;1.17;0.32;;;;;;;;;;4920493;29;20035;-89
2021/07/01 02:10:24;;;;;;;0.57;0.28;;;;;;;;;;4937135;29;20107;-88
2021/07/01 02:12:50;;;;;;;0.85;0.30;;;;;;;;;;4920250;29;20035;-90
2021/07/01 02:15:18;;;;;;;1.92;0.22;;;;;;;;;;4920428;29;20031;-89
2021/07/01 02:17:45;;;;;;;0.98;0.28;;;;;;;;;;4920493;29;20063;-89
2021/07/01 02:20:12;;;;;;;0.93;0.30;;;;;;;;;;4930540;29;20035;-86
2021/07/01 02:22:39;;;;;;;0.45;0.20;;;;;;;;;;4944550;29;20031;-83
2021/07/01 02:25:06;;;;;;;0.60;0.30;;;;;;;;;;4944162;29;20102;-85
2021/07/01 02:27:32;;;;;;;0.60;0.22;;;;;;;;;;4944259;29;20015;-85
2021/07/01 02:29:59;;;;;;;0.95;0.10;;;;;;;;;;4944256;29;20008;-82
2021/07/01 02:32:25;;;;;;;0.65;0.22;;;;;;;;;;4944263;29;20036;-83
2021/07/01 02:34:51;;;;;;;0.40;0.10;;;;;;;;;;4944110;29;20012;-83
2021/07/01 02:37:19;;;;;;;0.60;0.22;;;;;;;;;;4942312;29;20028;-90
2021/07/01 02:39:45;;;;;;;0.47;0.15;;;;;;;;;;4944830;29;20031;-88
2021/07/01 02:42:11;;;;;;;0.38;0.15;;;;;;;;;;4927820;29;20040;-89
2021/07/01 02:44:38;;;;;;;0.30;0.10;;;;;;;;;;4945348;29;20474;-88
2021/07/01 02:47:04;;;;;;;0.32;0.10;;;;;;;;;;4928015;29;20024;-89
2021/07/01 02:49:31;;;;;;;1.63;0.10;;;;;;;;;;4930439;29;20091;-89
2021/07/01 02:51:57;;;;;;;0.52;0.17;;;;;;;;;;4945624;29;20204;-89
2021/07/01 02:54:23;;;;;;;0.60;0.22;;;;;;;;;;4928405;29;20067;-89
2021/07/01 02:56:50;;;;;;;0.35;0.20;;;;;;;;;;4922588;29;20378;-90
2021/07/01 02:59:17;;;;;;;0.47;0.10;;;;;;;;;;4921638;29;20024;-90
2021/07/01 03:01:44;;;;;;;0.50;0.20;;;;;;;;;;4921857;29;20043;-90
2021/07/01 03:04:10;;;;;;;0.32;0.13;;;;;;;;;;4938991;29;20078;-90
2021/07/01 03:06:37;;;;;;;3.13;0.30;;;;;;;;;;4925961;29;20495;-88
2021/07/01 03:09:04;;;;;;;0.20;0.10;;;;;;;;;;4946702;29;20067;-89
2021/07/01 03:11:30;;;;;;;8.65;0.30;;;;;;;;;;4923625;29;20031;-90
2021/07/01 03:13:58;;;;;;;0.52;0.20;;;;;;;;;;4922150;29;20027;-89
2021/07/01 03:16:25;;;;;;;0.47;0.20;;;;;;;;;;4923182;29;20028;-90
2021/07/01 03:18:52;;;;;;;1.02;0.30;;;;;;;;;;4939961;29;20038;-89
2021/07/01 03:21:19;;;;;;;1.27;0.10;;;;;;;;;;4940352;29;20039;-85
2021/07/01 03:23:46;;;;;;;0.50;0.20;;;;;;;;;;4940633;29;20024;-89
2021/07/01 03:26:13;;;;;;;0.10;0.10;;;;;;;;;;4923689;29;20032;-89
2021/07/01 03:28:39;;;;;;;0.15;0.10;;;;;;;;;;4923930;29;20030;-88
2021/07/01 03:31:06;;;;;;;0.50;0.20;;;;;;;;;;4941276;29;20458;-89
2021/07/01 03:33:32;;;;;;;0.40;0.10;;;;;;;;;;4940868;29;20032;-90
2021/07/01 03:35:58;;;;;;;0.60;0.17;;;;;;;;;;4923809;29;20028;-89
2021/07/01 03:38:24;;;;;;;0.40;0.20;;;;;;;;;;4923333;29;20035;-87
2021/07/01 03:40:51;;;;;;;0.40;0.20;;;;;;;;;;4920201;29;20056;-87
2021/07/01 03:43:17;;;;;;;0.63;0.10;;;;;;;;;;4922189;29;20036;-89
2021/07/01 03:45:44;;;;;;;1.13;0.22;;;;;;;;;;4920393;29;20031;-88
2021/07/01 03:48:11;;;;;;;0.45;0.17;;;;;;;;;;4921146;29;20028;-91
2021/07/01 03:50:37;;;;;;;0.47;0.20;;;;;;;;;;4919545;29;20134;-89
2021/07/01 03:53:04;;;;;;;0.30;0.10;;;;;;;;;;4921105;29;20549;-90
2021/07/01 03:55:30;;;;;;;2.78;0.10;;;;;;;;;;4919587;29;20433;-91
2021/07/01 03:57:57;;;;;;;0.45;0.20;;;;;;;;;;4920872;29;20066;-90
2021/07/01 04:00:25;;;;;;;2.20;0.15;;;;;;;;;;4920145;29;20092;-90
2021/07/01 04:02:51;;;;;;;1.20;0.20;;;;;;;;;;4919752;29;20400;-89
2021/07/01 04:05:17;;;;;;;0.40;0.10;;;;;;;;;;4921611;29;20024;-90
2021/07/01 04:07:43;;;;;;;0.30;0.10;;;;;;;;;;4919044;29;20091;-89
2021/07/01 04:10:12;;;;;;;0.50;0.20;;;;;;;;;;4920248;29;20031;-88
2021/07/01 04:12:39;;;;;;;0.43;0.17;;;;;;;;;;4919883;29;20035;-88
2021/07/01 04:15:06;;;;;;;1.33;0.15;;;;;;;;;;4918922;29;20025;-88
2021/07/01 04:17:32;;;;;;;0.20;0.10;;;;;;;;;;4918767;29;20107;-89
2021/07/01 04:19:58;;;;;;;0.15;0.10;;;;;;;;;;4918846;29;20396;-91
2021/07/01 04:22:25;;;;;;;0.60;0.10;;;;;;;;;;4919998;29;20115;-91
2021/07/01 04:24:52;;;;;;;0.20;0.10;;;;;;;;;;4917928;29;20036;-89
2021/07/01 04:27:18;;;;;;;0.20;0.00;;;;;;;;;;4918936;29;20028;-91
2021/07/01 04:29:44;;;;;;;0.15;0.00;;;;;;;;;;4920384;29;20115;-88
2021/07/01 04:32:11;;;;;;;0.28;0.10;;;;;;;;;;4918332;29;20036;-91
2021/07/01 04:34:37;;;;;;;0.10;0.00;;;;;;;;;;4918640;29;20024;-87
2021/07/01 04:37:04;;;;;;;2.17;0.08;;;;;;;;;;4919575;29;20028;-90
2021/07/01 04:39:30;;;;;;;0.10;0.00;;;;;;;;;;4918886;29;20032;-91
2021/07/01 04:41:57;;;;;;;0.35;0.10;;;;;;;;;;4918219;29;20077;-90
2021/07/01 04:44:23;;;;;;;0.15;0.03;;;;;;;;;;4918780;29;20028;-90
2021/07/01 04:46:49;;;;;;;0.30;0.10;;;;;;;;;;4919263;29;20036;-85
2021/07/01 04:49:15;;;;;;;1.05;0.17;;;;;;;;;;4918108;29;20390;-82
2021/07/01 04:51:42;;;;;;;0.50;0.10;;;;;;;;;;4919056;29;20036;-81
2021/07/01 04:54:08;;;;;;;1.27;0.10;;;;;;;;;;4919411;29;20061;-82
2021/07/01 04:56:46;;;;;;;2.53;0.17;;;;;;;;;;4917602;29;20032;-83
2021/07/01 04:59:13;;;;;;;0.32;0.10;;;;;;;;;;4917759;29;20474;-84
2021/07/01 05:01:40;;;;;;;0.10;0.00;;;;;;;;;;4918543;29;20044;-84
2021/07/01 05:04:07;;;;;;;0.15;0.00;;;;;;;;;;4917567;29;20434;-85
2021/07/01 05:06:34;;;;;;;1.88;0.10;;;;;;;;;;4917345;29;20028;-83
2021/07/01 05:09:00;;;;;;;0.10;0.00;;;;;;;;;;4918363;29;20388;-83
2021/07/01 05:11:26;;;;;;;0.90;0.10;;;;;;;;;;4917481;29;20032;-84
2021/07/01 05:13:52;;;;;;;1.67;0.13;;;;;;;;;;4917050;29;20036;-81
2021/07/01 05:16:19;;;;;;;0.00;0.00;;;;;;;;;;4917062;29;20024;-83
2021/07/01 05:18:45;;;;;;;1.77;0.15;;;;;;;;;;4917005;29;20122;-82
2021/07/01 05:21:11;;;;;;;0.30;0.10;;;;;;;;;;4918873;29;20020;-81
2021/07/01 05:23:37;;;;;;;0.32;0.05;;;;;;;;;;4914843;29;20482;-88
2021/07/01 05:26:03;;;;;;;0.30;0.10;;;;;;;;;;4917101;29;20052;-89
2021/07/01 05:28:29;;;;;;;0.15;0.10;;;;;;;;;;4917142;29;20063;-88
2021/07/01 05:30:55;;;;;;;0.20;0.10;;;;;;;;;;4918611;29;20024;-80
2021/07/01 05:33:22;;;;;;;0.32;0.00;;;;;;;;;;4916997;29;20047;-85
2021/07/01 05:35:48;;;;;;;0.20;0.05;;;;;;;;;;4916862;29;20062;-85
2021/07/01 05:38:14;;;;;;;0.13;0.00;;;;;;;;;;4918082;29;20578;-90
2021/07/01 05:40:40;;;;;;;1.50;0.10;;;;;;;;;;4916942;29;20048;-81
2021/07/01 05:43:07;;;;;;;1.67;0.10;;;;;;;;;;4916706;29;20040;-81
2021/07/01 05:45:34;;;;;;;1.05;0.20;;;;;;;;;;4917076;29;20051;-89
2021/07/01 05:48:00;;;;;;;3.35;0.17;;;;;;;;;;4917996;29;20031;-80
2021/07/01 05:50:27;;;;;;;4.40;0.10;;;;;;;;;;4916426;29;20500;-90
2021/07/01 05:53:05;;;;;;;0.95;0.10;;;;;;;;;;4916886;29;20547;-90
2021/07/01 05:55:31;;;;;;;0.30;0.10;;;;;;;;;;4916886;29;20028;-89
2021/07/01 05:57:57;;;;;;;2.78;0.35;;;;;;;;;;4916858;29;20064;-81
2021/07/01 06:00:23;;;;;;;0.95;0.10;;;;;;;;;;4916674;29;20024;-83
2021/07/01 06:02:49;;;;;;;1.63;0.10;;;;;;;;;;4916635;29;20040;-91
2021/07/01 06:05:15;;;;;;;0.32;0.10;;;;;;;;;;4916344;29;20107;-91
2021/07/01 06:07:46;;;;;;;0.08;0.00;;;;;;;;;;4916332;29;20032;-90
2021/07/01 06:10:13;;;;;;;0.52;0.10;;;;;;;;;;4916540;29;20445;-84
2021/07/01 06:12:39;;;;;;;2.17;0.20;;;;;;;;;;4915990;29;20115;-80
2021/07/01 06:15:06;;;;;;;1.48;0.25;;;;;;;;;;4916424;29;20115;-83
2021/07/01 06:17:35;;;;;;;0.35;0.03;;;;;;;;;;4918598;29;20028;-80
2021/07/01 06:20:03;;;;;;;1.65;0.10;;;;;;;;;;4921735;29;20474;-79
2021/07/01 06:22:31;;;;;;;0.98;0.10;;;;;;;;;;4915940;29;20036;-79
2021/07/01 06:24:57;;;;;;;3.75;0.20;;;;;;;;;;4915879;29;20578;-80
2021/07/01 06:27:32;;;;;;;1.20;0.20;;;;;;;;;;4915871;29;20505;-83
2021/07/01 06:29:59;;;;;;;1.02;0.13;;;;;;;;;;4916024;29;20107;-88
2021/07/01 06:32:25;;;;;;;0.45;0.10;;;;;;;;;;4916031;29;20425;-87
2021/07/01 06:34:51;;;;;;;1.50;0.15;;;;;;;;;;4916446;29;20029;-91
2021/07/01 06:37:18;;;;;;;0.63;0.10;;;;;;;;;;4916617;29;20119;-88
2021/07/01 06:39:48;;;;;;;0.50;0.10;;;;;;;;;;4916649;29;20191;-82
2021/07/01 06:42:15;;;;;;;0.52;0.13;;;;;;;;;;4919105;29;20040;-90
2021/07/01 06:44:41;;;;;;;0.93;0.20;;;;;;;;;;4936122;29;20038;-79
2021/07/01 06:47:08;;;;;;;0.45;0.10;;;;;;;;;;4936294;29;20028;-87
2021/07/01 06:49:35;;;;;;;0.32;0.10;;;;;;;;;;4940800;29;20054;-90
2021/07/01 06:52:03;;;;;;;0.75;0.10;;;;;;;;;;4923602;29;20039;-80
2021/07/01 06:54:30;;;;;;;3.53;0.20;;;;;;;;;;4940074;29;20563;-80
2021/07/01 06:56:58;;;;;;;0.55;0.10;;;;;;;;;;4923610;29;20035;-90
2021/07/01 06:59:24;;;;;;;0.30;0.10;;;;;;;;;;4923232;29;20127;-89
2021/07/01 07:01:51;;;;;;;1.17;0.10;;;;;;;;;;4913209;29;20035;-81
2021/07/01 07:04:18;;;;;;;0.63;0.10;;;;;;;;;;4927060;29;20063;-82
2021/07/01 07:06:45;;;;;;;0.43;0.20;;;;;;;;;;4930216;29;20497;-82
2021/07/01 07:09:13;;;;;;;1.50;0.35;;;;;;;;;;4927461;29;20052;-83
2021/07/01 07:11:39;;;;;;;0.10;0.00;;;;;;;;;;4913191;29;20040;-82
2021/07/01 07:14:05;;;;;;;0.25;0.10;;;;;;;;;;4914142;29;20036;-82
2021/07/01 07:16:32;;;;;;;1.10;0.20;;;;;;;;;;4924140;29;20024;-82
2021/07/01 07:18:59;;;;;;;1.65;0.10;;;;;;;;;;4917211;29;20031;-83
2021/07/01 07:21:26;;;;;;;2.90;0.20;;;;;;;;;;4920072;29;20127;-83
2021/07/01 07:23:55;;;;;;;0.50;0.10;;;;;;;;;;4938787;29;20046;-83
2021/07/01 07:26:25;;;;;;;7.43;0.20;;;;;;;;;;4921896;29;20510;-82
2021/07/01 07:28:53;;;;;;;0.20;0.08;;;;;;;;;;4922091;29;20028;-83
2021/07/01 07:31:25;;;;;;;0.40;0.20;;;;;;;;;;4938727;29;20110;-83
2021/07/01 07:33:58;;;;;;;0.40;0.05;;;;;;;;;;4921788;29;20034;-79
2021/07/01 07:36:25;;;;;;;2.50;0.20;;;;;;;;;;4921972;29;20027;-79
2021/07/01 07:38:52;;;;;;;0.60;0.20;;;;;;;;;;4922077;29;20028;-83
2021/07/01 07:41:18;;;;;;;0.25;0.10;;;;;;;;;;4921224;29;20536;-79
2021/07/01 07:43:45;;;;;;;0.28;0.10;;;;;;;;;;4938677;29;20079;-84
2021/07/01 07:46:12;;;;;;;0.40;0.10;;;;;;;;;;4921654;29;20052;-80
2021/07/01 07:48:39;;;;;;;0.88;0.13;;;;;;;;;;4938782;29;20039;-82
2021/07/01 07:51:06;;;;;;;0.95;0.30;;;;;;;;;;4921728;29;20060;-79
2021/07/01 07:53:33;;;;;;;1.45;0.10;;;;;;;;;;4924560;29;20050;-80
2021/07/01 07:56:07;;;;;;;0.70;0.13;;;;;;;;;;4921848;29;20079;-83
2021/07/01 07:58:37;;;;;;;3.78;0.10;;;;;;;;;;4921817;29;20050;-81
2021/07/01 08:01:04;;;;;;;2.83;0.15;;;;;;;;;;4921246;29;20090;-79
2021/07/01 08:03:34;;;;;;;0.30;0.10;;;;;;;;;;4921300;29;20047;-81
2021/07/01 08:06:01;;;;;;;1.23;0.20;;;;;;;;;;4938354;29;20028;-81
2021/07/01 08:08:31;;;;;;;1.80;0.20;;;;;;;;;;4933578;29;20397;-85
2021/07/01 08:10:59;;;;;;;0.50;0.10;;;;;;;;;;4910552;29;20078;-86
2021/07/01 08:13:26;;;;;;;0.22;0.10;;;;;;;;;;4911877;29;20492;-83
2021/07/01 08:15:52;;;;;;;0.70;0.10;;;;;;;;;;4917247;29;20405;-80
2021/07/01 08:18:30;;;;;;;0.65;0.10;;;;;;;;;;4938075;29;20028;-82
2021/07/01 08:20:57;;;;;;;0.40;0.20;;;;;;;;;;4937975;29;20605;-84
2021/07/01 08:23:23;;;;;;;0.45;0.20;;;;;;;;;;4920547;29;20111;-81
2021/07/01 08:25:52;;;;;;;1.63;0.22;;;;;;;;;;4920632;29;20478;-80
2021/07/01 08:28:19;;;;;;;1.85;0.20;;;;;;;;;;4938402;29;20027;-80
2021/07/01 08:30:45;;;;;;;0.30;0.20;;;;;;;;;;4920898;29;20043;-81
2021/07/01 08:33:12;;;;;;;0.43;0.20;;;;;;;;;;4920862;29;20028;-81
2021/07/01 08:35:38;;;;;;;0.85;0.20;;;;;;;;;;4920693;29;20032;-80
2021/07/01 08:38:04;;;;;;;12.00;1.48;;;;;;;;;;4920559;29;20104;-80
2021/07/01 08:40:35;;;;;;;1.98;0.38;;;;;;;;;;4920997;29;20051;-82
2021/07/01 08:43:02;;;;;;;0.85;0.30;;;;;;;;;;4920532;29;20040;-80
2021/07/01 08:45:38;;;;;;;0.55;0.30;;;;;;;;;;4920387;29;20036;-80
2021/07/01 08:48:04;;;;;;;0.52;0.20;;;;;;;;;;4920947;29;20034;-81
2021/07/01 08:50:32;;;;;;;0.68;0.20;;;;;;;;;;4920676;29;20083;-83
2021/07/01 08:53:01;;;;;;;16.80;1.65;;;;;;;;;;4920288;29;20070;-81
2021/07/01 08:55:28;;;;;;;0.55;0.20;;;;;;;;;;4920176;29;20035;-84
2021/07/01 08:57:56;;;;;;;1.90;0.30;;;;;;;;;;4920341;29;20031;-84
2021/07/01 09:00:23;;;;;;;0.20;0.10;;;;;;;;;;4937340;29;20031;-85
2021/07/01 09:03:04;;;;;;;1.60;0.30;;;;;;;;;;4920149;29;20036;-81
2021/07/01 09:05:31;;;;;;;0.57;0.17;;;;;;;;;;4920217;29;20032;-80
2021/07/01 09:07:59;;;;;;;0.55;0.20;;;;;;;;;;4920131;29;20032;-81
2021/07/01 09:10:25;;;;;;;0.60;0.20;;;;;;;;;;4936957;29;20496;-84
2021/07/01 09:12:55;;;;;;;3.80;0.30;;;;;;;;;;4919978;29;20027;-80
2021/07/01 09:15:22;;;;;;;3.08;0.43;;;;;;;;;;4920307;29;20051;-85
2021/07/01 09:17:48;;;;;;;1.83;0.50;;;;;;;;;;4920071;29;20067;-83
2021/07/01 09:20:19;;;;;;;0.68;0.15;;;;;;;;;;4937063;29;20499;-82
2021/07/01 09:22:46;;;;;;;0.65;0.20;;;;;;;;;;4919910;29;20040;-84
2021/07/01 09:25:13;;;;;;;2.25;0.55;;;;;;;;;;4920093;29;20161;-79
2021/07/01 09:27:43;;;;;;;1.15;0.40;;;;;;;;;;4920846;29;20027;-81
2021/07/01 09:30:10;;;;;;;0.93;0.22;;;;;;;;;;4920674;29;20046;-84
2021/07/01 09:32:37;;;;;;;1.67;0.30;;;;;;;;;;4919904;29;20038;-82
2021/07/01 09:35:03;;;;;;;1.55;0.20;;;;;;;;;;4920041;29;20031;-82
2021/07/01 09:37:43;;;;;;;0.63;0.22;;;;;;;;;;4919946;29;20074;-85
2021/07/01 09:40:11;;;;;;;1.50;0.20;;;;;;;;;;4919405;29;20044;-81
2021/07/01 09:42:37;;;;;;;0.60;0.30;;;;;;;;;;4919497;29;20046;-85
2021/07/01 09:45:08;;;;;;;1.40;0.30;;;;;;;;;;4919563;29;20090;-88
2021/07/01 09:47:38;;;;;;;0.38;0.10;;;;;;;;;;4919613;29;20114;-84
2021/07/01 09:50:05;;;;;;;3.00;0.20;;;;;;;;;;4936886;29;20020;-85
2021/07/01 09:52:36;;;;;;;3.10;0.20;;;;;;;;;;4919448;29;20027;-83
2021/07/01 09:55:03;;;;;;;0.70;0.20;;;;;;;;;;4919416;29;20024;-81
2021/07/01 09:57:32;;;;;;;0.70;0.30;;;;;;;;;;4936322;29;20028;-82
2021/07/01 10:00:00;;;;;;;0.50;0.20;;;;;;;;;;4936732;29;20024;-80
2021/07/01 10:02:26;;;;;;;0.70;0.20;;;;;;;;;;4919359;29;20086;-84
2021/07/01 10:04:52;;;;;;;1.50;0.30;;;;;;;;;;4936375;29;20547;-81
2021/07/01 10:07:20;;;;;;;0.47;0.20;;;;;;;;;;4919401;29;20028;-82
2021/07/01 10:09:47;;;;;;;2.45;0.30;;;;;;;;;;4919756;29;20473;-83
2021/07/01 10:12:23;;;;;;;0.98;0.17;;;;;;;;;;4919256;29;20083;-83
2021/07/01 10:14:55;;;;;;;0.32;0.13;;;;;;;;;;4936474;29;20549;-81
2021/07/01 10:17:22;;;;;;;0.70;0.20;;;;;;;;;;4919454;29;20059;-83
2021/07/01 10:19:48;;;;;;;0.43;0.20;;;;;;;;;;4919318;29;20040;-81
2021/07/01 10:22:19;;;;;;;0.90;0.20;;;;;;;;;;4918418;29;20071;-81
2021/07/01 10:24:58;;;;;;;4.30;0.40;;;;;;;;;;4919448;29;20024;-82
2021/07/01 10:27:44;;;;;;;0.45;0.20;;;;;;;;;;4919255;29;20082;-81
2021/07/01 10:30:15;;;;;;;0.43;0.15;;;;;;;;;;4936022;29;20087;-84
2021/07/01 10:32:43;;;;;;;1.45;0.30;;;;;;;;;;4919381;29;20032;-82
2021/07/01 10:35:28;;;;;;;1.55;0.17;;;;;;;;;;4927101;29;20032;-81
2021/07/01 10:38:10;;;;;;;0.85;0.10;;;;;;;;;;4927001;29;20035;-80
2021/07/01 10:40:41;;;;;;;0.60;0.20;;;;;;;;;;4942751;29;20071;-82
2021/07/01 10:43:08;;;;;;;0.45;0.28;;;;;;;;;;4935910;29;20138;-84
2021/07/01 10:45:35;;;;;;;0.35;0.13;;;;;;;;;;4920437;29;20024;-88
2021/07/01 10:48:15;;;;;;;2.42;0.30;;;;;;;;;;4919678;29;20038;-90
2021/07/01 10:50:41;;;;;;;0.90;0.45;;;;;;;;;;4919962;29;20510;-89
2021/07/01 10:53:27;;;;;;;4.82;0.47;;;;;;;;;;4919427;29;20107;-90
2021/07/01 10:55:54;;;;;;;0.40;0.20;;;;;;;;;;4920338;29;20030;-90
2021/07/01 10:58:20;;;;;;;1.10;0.20;;;;;;;;;;4919473;29;20035;-84
2021/07/01 11:00:46;;;;;;;0.80;0.30;;;;;;;;;;4919072;29;20032;-81
2021/07/01 11:03:19;;;;;;;0.65;0.10;;;;;;;;;;4919708;29;20042;-90
2021/07/01 11:05:45;;;;;;;1.95;0.40;;;;;;;;;;4919868;29;20385;-90
2021/07/01 11:08:23;;;;;;;0.45;0.20;;;;;;;;;;4920203;29;20039;-82
2021/07/01 11:10:49;;;;;;;1.20;0.30;;;;;;;;;;4918834;29;20389;-79
2021/07/01 11:13:15;;;;;;;0.50;0.20;;;;;;;;;;4918648;29;20027;-81
2021/07/01 11:16:01;;;;;;;0.43;0.20;;;;;;;;;;4918983;29;20031;-80
2021/07/01 11:18:35;;;;;;;4.03;0.22;;;;;;;;;;4900598;29;20039;-83
2021/07/01 11:21:10;;;;;;;1.67;0.20;;;;;;;;;;4900291;29;20071;-89
2021/07/01 11:23:40;;;;;;;0.73;0.22;;;;;;;;;;4900855;29;20036;-89
2021/07/01 11:26:22;;;;;;;0.80;0.20;;;;;;;;;;4917232;29;20039;-82
2021/07/01 11:28:48;;;;;;;0.30;0.10;;;;;;;;;;4917004;29;20096;-79
2021/07/01 11:31:15;;;;;;;2.50;0.20;;;;;;;;;;4916657;29;20551;-83
2021/07/01 11:33:44;;;;;;;1.35;0.20;;;;;;;;;;4917654;29;20507;-83
2021/07/01 11:36:11;;;;;;;0.38;0.20;;;;;;;;;;4903174;29;20036;-79
2021/07/01 11:38:38;;;;;;;0.25;0.10;;;;;;;;;;4903551;29;20445;-79
2021/07/01 11:41:04;;;;;;;0.45;0.20;;;;;;;;;;4919957;29;20059;-85
2021/07/01 11:43:31;;;;;;;1.95;0.20;;;;;;;;;;4919831;29;20044;-85
2021/07/01 11:45:59;;;;;;;0.75;0.20;;;;;;;;;;4903415;29;20028;-80
2021/07/01 11:48:26;;;;;;;0.52;0.15;;;;;;;;;;4903334;29;20064;-80
2021/07/01 11:50:53;;;;;;;1.73;0.20;;;;;;;;;;4920019;29;20529;-90
2021/07/01 11:53:20;;;;;;;1.90;0.45;;;;;;;;;;4903692;29;20045;-90
2021/07/01 11:55:47;;;;;;;1.75;0.20;;;;;;;;;;4903504;29;20028;-85
2021/07/01 11:58:14;;;;;;;2.33;0.65;;;;;;;;;;4902971;29;20098;-80
2021/07/01 12:00:40;;;;;;;2.63;1.00;;;;;;;;;;4902824;29;20028;-83
2021/07/01 12:03:07;;;;;;;0.98;0.40;;;;;;;;;;4902886;29;20063;-86
2021/07/01 12:05:33;;;;;;;0.22;0.10;;;;;;;;;;4919170;29;20036;-79
2021/07/01 12:08:00;;;;;;;0.88;0.10;;;;;;;;;;4930890;29;20024;-82
2021/07/01 12:10:26;;;;;;;0.00;0.00;;;;;;;;;;4938337;29;20045;-79
2021/07/01 12:12:52;;;;;;;0.60;0.20;;;;;;;;;;4921290;29;20071;-82
2021/07/01 12:15:19;;;;;;;1.90;0.28;;;;;;;;;;4921689;29;20039;-85
2021/07/01 12:17:51;;;;;;;1.55;0.10;;;;;;;;;;4921690;29;20024;-87
2021/07/01 12:20:27;;;;;;;0.30;0.10;;;;;;;;;;4921446;29;20030;-81
2021/07/01 12:22:56;;;;;;;0.30;0.10;;;;;;;;;;4920933;29;20038;-81
2021/07/01 12:25:25;;;;;;;0.20;0.10;;;;;;;;;;4920888;29;20038;-79
2021/07/01 12:28:07;;;;;;;0.20;0.10;;;;;;;;;;4921083;29;20032;-82
2021/07/01 12:30:55;;;;;;;0.20;0.10;;;;;;;;;;4921636;29;20389;-83
2021/07/01 12:33:36;;;;;;;1.10;0.10;;;;;;;;;;4920875;29;20023;-81
2021/07/01 12:36:03;;;;;;;1.42;0.10;;;;;;;;;;4921109;29;20042;-85
2021/07/01 12:38:29;;;;;;;1.45;0.25;;;;;;;;;;4938042;29;20020;-90
2021/07/01 12:41:00;;;;;;;1.98;0.08;;;;;;;;;;4937774;29;20090;-90
2021/07/01 12:43:48;;;;;;;0.10;0.00;;;;;;;;;;4920563;29;20523;-80
2021/07/01 12:46:33;;;;;;;0.10;0.08;;;;;;;;;;4920135;29;20429;-89
2021/07/01 12:48:59;;;;;;;0.50;0.10;;;;;;;;;;4920707;29;20046;-82
2021/07/01 12:51:44;;;;;;;1.20;0.10;;;;;;;;;;4920676;29;20071;-88
2021/07/01 12:54:17;;;;;;;0.10;0.10;;;;;;;;;;4921570;29;20039;-90
2021/07/01 12:56:43;;;;;;;0.90;0.20;;;;;;;;;;4921089;29;20032;-84
2021/07/01 12:59:09;;;;;;;3.63;0.20;;;;;;;;;;4920407;29;20067;-81
2021/07/01 13:01:35;;;;;;;0.10;0.00;;;;;;;;;;4920835;29;20031;-83
2021/07/01 13:04:01;;;;;;;0.98;0.10;;;;;;;;;;4918230;29;20071;-87
2021/07/01 13:06:27;;;;;;;0.60;0.20;;;;;;;;;;4923791;29;20031;-93
2021/07/01 13:09:04;;;;;;;;;;;;;;;;;;;;;
